createdAt,value
2023-05-24T00:03:04.550Z,10.233154
2023-05-24T00:06:29.689Z,10.263367
2023-05-24T00:09:54.949Z,10.273438
2023-05-24T00:13:20.132Z,10.263367
2023-05-24T00:16:45.377Z,10.202942
2023-05-24T00:20:10.597Z,10.223083
2023-05-24T00:23:35.751Z,10.233154
2023-05-24T00:27:00.993Z,10.223083
2023-05-24T00:30:26.216Z,10.263367
2023-05-24T00:33:51.472Z,10.273438
2023-05-24T00:37:16.714Z,10.233154
2023-05-24T00:40:42.109Z,10.253296
2023-05-24T00:44:07.164Z,10.223083
2023-05-24T00:47:32.413Z,10.172729
2023-05-24T00:50:57.613Z,10.082092
2023-05-24T00:54:22.846Z,9.991455
2023-05-24T00:57:48.026Z,9.991455
2023-05-24T01:01:13.244Z,10.041809
2023-05-24T01:04:38.469Z,10.082092
2023-05-24T01:08:03.706Z,10.082092
2023-05-24T01:11:28.960Z,10.041809
2023-05-24T01:14:54.130Z,10.021667
2023-05-24T01:18:19.339Z,9.991455
2023-05-24T01:21:44.573Z,9.961243
2023-05-24T01:25:09.816Z,9.910889
2023-05-24T01:28:35.050Z,9.860535
2023-05-24T01:32:00.218Z,9.860535
2023-05-24T01:35:25.416Z,9.840393
2023-05-24T01:38:50.627Z,9.870605
2023-05-24T01:42:15.829Z,9.900818
2023-05-24T01:45:41.041Z,9.93103
2023-05-24T01:49:06.265Z,9.93103
2023-05-24T01:52:31.556Z,9.910889
2023-05-24T01:55:56.693Z,9.860535
2023-05-24T01:59:21.900Z,9.810181
2023-05-24T02:02:47.209Z,9.810181
2023-05-24T02:06:12.293Z,9.779968
2023-05-24T02:09:37.506Z,9.749756
2023-05-24T02:13:02.726Z,9.739685
2023-05-24T02:16:27.946Z,9.67926
2023-05-24T02:19:53.185Z,9.638977
2023-05-24T02:23:18.355Z,9.638977
2023-05-24T02:26:43.559Z,9.638977
2023-05-24T02:30:08.759Z,9.638977
2023-05-24T02:33:33.988Z,9.598694
2023-05-24T02:36:59.216Z,9.558411
2023-05-24T02:40:24.388Z,9.508057
2023-05-24T02:43:49.589Z,9.467773
2023-05-24T02:47:14.823Z,9.42749
2023-05-24T02:50:40.071Z,9.417419
2023-05-24T02:54:05.304Z,9.397278
2023-05-24T02:57:30.457Z,9.457703
2023-05-24T03:00:55.667Z,9.42749
2023-05-24T03:04:20.877Z,9.477844
2023-05-24T03:07:46.144Z,9.377136
2023-05-24T03:11:11.388Z,9.316711
2023-05-24T03:14:36.596Z,9.316711
2023-05-24T03:18:01.891Z,9.205933
2023-05-24T03:21:27.074Z,9.165649
2023-05-24T03:24:52.268Z,9.165649
2023-05-24T03:28:17.503Z,9.125366
2023-05-24T03:31:42.738Z,9.014587
2023-05-24T03:35:07.935Z,9.014587
2023-05-24T03:38:33.149Z,8.984375
2023-05-24T03:41:58.384Z,9.014587
2023-05-24T03:45:30.778Z,9.0448
2023-05-24T03:48:48.904Z,9.075012
2023-05-24T03:52:14.058Z,9.0448
2023-05-24T03:55:39.300Z,9.0448
2023-05-24T03:59:04.596Z,9.075012
2023-05-24T04:02:29.891Z,9.095154
2023-05-24T04:05:55.007Z,9.024658
2023-05-24T04:09:20.244Z,9.054871
2023-05-24T04:12:45.463Z,8.964233
2023-05-24T04:16:10.673Z,8.893738
2023-05-24T04:19:35.917Z,8.913879
2023-05-24T04:23:01.120Z,8.893738
2023-05-24T04:26:26.329Z,8.954163
2023-05-24T04:29:51.560Z,8.92395
2023-05-24T04:33:16.765Z,8.944092
2023-05-24T04:36:42.020Z,8.92395
2023-05-24T04:40:07.529Z,8.863525
2023-05-24T04:43:32.775Z,8.843384
2023-05-24T04:46:58.111Z,8.873596
2023-05-24T04:50:23.248Z,8.772888
2023-05-24T04:53:48.500Z,8.79303
2023-05-24T04:57:13.912Z,8.652039
2023-05-24T05:00:39.271Z,8.561401
2023-05-24T05:04:04.667Z,8.581543
2023-05-24T05:07:29.692Z,8.631897
2023-05-24T05:10:54.968Z,8.742676
2023-05-24T05:14:20.486Z,8.682251
2023-05-24T05:17:45.728Z,8.450623
2023-05-24T05:21:10.924Z,8.521118
2023-05-24T05:24:36.161Z,8.440552
2023-05-24T05:28:01.414Z,8.198853
2023-05-24T05:31:26.601Z,7.997437
2023-05-24T05:34:51.869Z,7.846375
2023-05-24T05:38:17.074Z,7.926941
2023-05-24T05:41:44.082Z,8.017578
2023-05-24T05:45:07.553Z,8.007507
2023-05-24T05:48:32.754Z,8.078003
2023-05-24T05:51:57.958Z,8.017578
2023-05-24T05:55:23.158Z,8.078003
2023-05-24T05:58:48.391Z,8.098145
2023-05-24T06:02:13.736Z,8.098145
2023-05-24T06:05:38.840Z,8.178711
2023-05-24T06:09:04.104Z,7.926941
2023-05-24T06:12:29.311Z,7.856445
2023-05-24T06:15:54.582Z,8.067932
2023-05-24T06:19:19.812Z,8.098145
2023-05-24T06:22:45.007Z,8.158569
2023-05-24T06:26:10.256Z,8.370056
2023-05-24T06:29:35.523Z,8.531189
2023-05-24T06:33:00.717Z,8.682251
2023-05-24T06:36:26.043Z,8.732605
2023-05-24T06:39:51.161Z,8.712463
2023-05-24T06:43:16.358Z,8.682251
2023-05-24T06:46:41.604Z,8.79303
2023-05-24T06:50:06.815Z,8.984375
2023-05-24T06:53:32.097Z,9.105225
2023-05-24T06:56:57.307Z,9.226074
2023-05-24T07:00:22.559Z,9.105225
2023-05-24T07:03:47.786Z,9.195862
2023-05-24T07:07:12.994Z,9.286499
2023-05-24T07:10:38.250Z,9.377136
2023-05-24T07:14:03.438Z,9.286499
2023-05-24T07:17:28.764Z,9.356995
2023-05-24T07:20:53.933Z,9.508057
2023-05-24T07:24:19.210Z,9.860535
2023-05-24T07:27:44.471Z,10.172729
2023-05-24T07:31:09.717Z,10.253296
2023-05-24T07:34:34.912Z,10.122375
2023-05-24T07:38:00.169Z,10.092163
2023-05-24T07:41:25.399Z,10.152588
2023-05-24T07:44:50.648Z,10.384216
2023-05-24T07:48:16.126Z,10.595703
2023-05-24T07:51:41.298Z,10.80719
2023-05-24T07:55:06.529Z,10.887756
2023-05-24T07:58:31.739Z,10.817261
2023-05-24T08:01:57.163Z,10.837402
2023-05-24T08:05:22.128Z,11.210022
2023-05-24T08:08:47.362Z,11.552429
2023-05-24T08:12:13.875Z,11.582642
2023-05-24T08:15:37.868Z,11.290588
2023-05-24T08:19:03.248Z,10.817261
2023-05-24T08:22:28.288Z,10.787048
2023-05-24T08:25:53.541Z,10.988464
2023-05-24T08:29:18.733Z,11.461792
2023-05-24T08:32:44.014Z,11.834412
2023-05-24T08:36:09.358Z,12.116394
2023-05-24T08:39:34.413Z,12.267456
2023-05-24T08:42:59.654Z,11.94519
2023-05-24T08:46:24.928Z,11.804199
2023-05-24T08:49:50.138Z,11.471863
2023-05-24T08:53:15.436Z,11.612854
2023-05-24T08:56:40.653Z,11.763916
2023-05-24T09:00:05.867Z,11.904907
2023-05-24T09:03:31.197Z,11.914978
2023-05-24T09:06:56.324Z,11.94519
2023-05-24T09:10:21.573Z,12.045898
2023-05-24T09:13:46.794Z,12.126465
2023-05-24T09:17:12.016Z,12.166748
2023-05-24T09:20:37.322Z,12.277527
2023-05-24T09:24:02.582Z,12.378235
2023-05-24T09:27:27.908Z,12.378235
2023-05-24T09:30:53.133Z,12.368164
2023-05-24T09:34:18.283Z,12.136536
2023-05-24T09:37:43.500Z,12.116394
2023-05-24T09:41:08.859Z,12.045898
2023-05-24T09:44:34.076Z,12.086182
2023-05-24T09:47:59.219Z,11.985474
2023-05-24T09:51:24.448Z,11.955261
2023-05-24T09:54:49.668Z,12.086182
2023-05-24T09:58:14.938Z,12.267456
2023-05-24T10:01:40.282Z,12.529297
2023-05-24T10:05:05.413Z,12.56958
2023-05-24T10:08:30.648Z,12.750854
2023-05-24T10:11:55.872Z,12.861633
2023-05-24T10:15:21.125Z,12.750854
2023-05-24T10:18:46.372Z,13.002625
2023-05-24T10:22:11.644Z,13.103333
2023-05-24T10:25:36.834Z,13.204041
2023-05-24T10:29:02.071Z,13.334961
2023-05-24T10:32:27.419Z,13.284607
2023-05-24T10:35:52.537Z,13.516235
2023-05-24T10:39:17.743Z,13.627014
2023-05-24T10:42:42.953Z,13.687439
2023-05-24T10:46:08.222Z,13.687439
2023-05-24T10:49:33.454Z,13.667297
2023-05-24T10:52:58.740Z,13.69751
2023-05-24T10:56:23.920Z,13.848572
2023-05-24T10:59:49.249Z,13.989563
2023-05-24T11:03:14.507Z,13.999634
2023-05-24T11:06:39.738Z,14.039917
2023-05-24T11:10:04.985Z,14.241333
2023-05-24T11:13:30.215Z,14.472961
2023-05-24T11:16:55.517Z,14.613953
2023-05-24T11:20:20.821Z,14.654236
2023-05-24T11:23:46.010Z,14.644165
2023-05-24T11:27:11.287Z,14.211121
2023-05-24T11:30:36.476Z,14.029846
2023-05-24T11:34:01.709Z,14.140625
2023-05-24T11:37:35.106Z,14.321899
2023-05-24T11:40:52.801Z,14.291687
2023-05-24T11:44:18.092Z,13.959351
2023-05-24T11:47:43.317Z,13.94928
2023-05-24T11:51:08.522Z,14.090271
2023-05-24T11:54:33.791Z,14.251404
2023-05-24T11:57:59.044Z,14.392395
2023-05-24T12:01:24.342Z,14.422607
2023-05-24T12:04:49.816Z,14.573669
2023-05-24T12:08:14.973Z,14.624023
2023-05-24T12:11:40.183Z,14.644165
2023-05-24T12:15:05.442Z,14.603882
2023-05-24T12:18:30.701Z,14.402466
2023-05-24T12:21:56.572Z,14.291687
2023-05-24T12:25:21.831Z,14.402466
2023-05-24T12:28:47.051Z,14.472961
2023-05-24T12:32:13.032Z,14.362183
2023-05-24T12:35:37.659Z,14.352112
2023-05-24T12:39:02.740Z,14.321899
2023-05-24T12:42:27.945Z,14.392395
2023-05-24T12:45:54.465Z,14.472961
2023-05-24T12:49:18.473Z,14.573669
2023-05-24T12:52:43.765Z,14.392395
2023-05-24T12:56:08.991Z,14.352112
2023-05-24T12:59:34.240Z,14.180908
2023-05-24T13:02:59.559Z,13.888855
2023-05-24T13:06:24.729Z,13.868713
2023-05-24T13:09:50.269Z,13.818359
2023-05-24T13:13:15.497Z,13.838501
2023-05-24T13:16:40.710Z,13.69751
2023-05-24T13:20:06.074Z,13.868713
2023-05-24T13:23:31.169Z,13.999634
2023-05-24T13:26:56.412Z,14.120483
2023-05-24T13:30:21.625Z,14.251404
2023-05-24T13:33:46.875Z,14.392395
2023-05-24T13:37:12.114Z,14.402466
2023-05-24T13:40:38.850Z,14.472961
2023-05-24T13:44:02.609Z,14.624023
2023-05-24T13:47:39.146Z,14.765015
2023-05-24T13:50:53.030Z,14.392395
2023-05-24T13:54:18.258Z,14.33197
2023-05-24T14:01:08.968Z,14.039917
2023-05-24T14:04:34.002Z,13.838501
2023-05-24T14:07:59.276Z,13.687439
2023-05-24T14:11:24.489Z,13.868713
2023-05-24T14:18:14.981Z,14.241333
2023-05-24T14:21:40.232Z,14.422607
2023-05-24T14:25:05.483Z,14.362183
2023-05-24T14:28:30.720Z,14.150696
2023-05-24T14:31:56.029Z,14.039917
2023-05-24T14:35:21.252Z,14.019775
2023-05-24T14:38:46.494Z,14.100342
2023-05-24T14:42:11.752Z,14.20105
2023-05-24T14:45:37.073Z,14.281616
2023-05-24T14:49:02.349Z,14.392395
2023-05-24T14:52:27.662Z,14.462891
2023-05-24T14:55:52.891Z,14.392395
2023-05-24T14:59:18.146Z,14.180908
2023-05-24T15:02:43.465Z,14.221191
2023-05-24T15:06:08.731Z,14.271545
2023-05-24T15:09:34.006Z,14.291687
2023-05-24T15:46:12.884Z,13.747864
2023-05-24T15:49:38.054Z,13.727722
2023-05-24T15:53:03.337Z,13.667297
2023-05-24T15:56:28.620Z,13.627014
2023-05-24T15:59:58.225Z,13.586731
2023-05-24T16:03:23.590Z,13.506165
2023-05-24T16:06:48.816Z,13.455811
2023-05-24T16:10:14.021Z,13.455811
2023-05-24T16:13:39.296Z,13.475952
2023-05-24T16:17:04.680Z,13.435669
2023-05-24T16:20:29.963Z,13.385315
2023-05-24T16:23:55.109Z,13.355103
2023-05-24T16:27:20.378Z,13.304749
2023-05-24T16:30:45.702Z,13.284607
2023-05-24T16:34:10.896Z,13.264465
2023-05-24T16:37:36.164Z,13.284607
2023-05-24T16:41:01.388Z,13.234253
2023-05-24T16:44:26.690Z,13.153687
2023-05-24T16:47:51.956Z,13.103333
2023-05-24T16:51:17.182Z,13.153687
2023-05-24T16:54:44.051Z,13.143616
2023-05-24T16:58:09.833Z,13.113403
2023-05-24T17:01:35.549Z,13.143616
2023-05-24T17:05:00.806Z,13.123474
2023-05-24T17:08:26.017Z,13.083191
2023-05-24T17:11:51.319Z,13.042908
2023-05-24T17:15:16.584Z,12.962341
2023-05-24T17:18:41.937Z,12.901917
2023-05-24T17:22:07.152Z,12.932129
2023-05-24T17:25:32.390Z,12.932129
2023-05-24T17:28:57.714Z,12.932129
2023-05-24T17:32:23.035Z,12.720642
2023-05-24T17:35:48.270Z,12.56958
2023-05-24T17:39:13.508Z,12.559509
2023-05-24T17:42:38.753Z,12.408447
2023-05-24T17:46:04.332Z,12.348022
2023-05-24T17:49:29.330Z,12.136536
2023-05-24T17:52:54.593Z,12.045898
2023-05-24T17:56:19.846Z,12.116394
2023-05-24T17:59:45.099Z,12.116394
2023-05-24T18:03:10.441Z,12.045898
2023-05-24T18:06:35.675Z,12.06604
2023-05-24T18:10:00.953Z,12.015686
2023-05-24T18:13:26.195Z,11.94519
2023-05-24T18:16:51.467Z,11.884766
2023-05-24T18:20:16.688Z,11.884766
2023-05-24T18:23:41.870Z,11.884766
2023-05-24T18:27:07.086Z,11.824341
2023-05-24T18:30:32.349Z,11.723633
2023-05-24T18:33:58.111Z,11.69342
2023-05-24T18:37:22.847Z,11.673279
2023-05-24T18:40:48.109Z,11.643066
2023-05-24T18:44:13.366Z,11.602783
2023-05-24T18:47:38.657Z,11.542358
2023-05-24T18:51:03.903Z,11.522217
2023-05-24T18:54:29.191Z,11.492004
2023-05-24T18:57:54.409Z,11.371155
2023-05-24T19:01:19.746Z,11.270447
2023-05-24T19:04:44.993Z,11.17981
2023-05-24T19:08:10.319Z,11.089172
2023-05-24T19:11:35.592Z,11.05896
2023-05-24T19:15:00.780Z,10.958252
2023-05-24T19:18:26.000Z,10.917969
2023-05-24T19:21:51.285Z,10.837402
2023-05-24T19:25:16.571Z,10.756836
2023-05-24T19:28:41.794Z,10.666199
2023-05-24T19:32:07.109Z,10.656128
2023-05-24T19:35:32.290Z,10.635986
2023-05-24T19:38:57.568Z,10.595703
2023-05-24T19:42:22.795Z,10.545349
2023-05-24T19:45:48.165Z,10.585632
2023-05-24T19:49:13.264Z,10.545349
2023-05-24T19:52:38.579Z,10.505066
2023-05-24T19:56:03.799Z,10.404358
2023-05-24T19:59:29.012Z,10.343933
2023-05-24T20:02:54.334Z,10.273438
2023-05-24T20:06:19.491Z,10.112305
2023-05-24T20:09:44.725Z,9.890747
2023-05-24T20:13:09.944Z,9.759827
2023-05-24T20:16:35.229Z,9.649048
2023-05-24T20:20:00.466Z,9.649048
2023-05-24T20:23:25.601Z,9.67926
2023-05-24T20:26:50.801Z,9.709473
2023-05-24T20:30:16.093Z,9.638977
2023-05-24T20:33:41.402Z,9.608765
2023-05-24T20:37:06.671Z,9.497986
2023-05-24T20:40:31.881Z,9.417419
2023-05-24T20:43:57.130Z,9.286499
2023-05-24T20:47:22.399Z,9.276428
2023-05-24T20:50:47.620Z,9.276428
2023-05-24T20:54:12.854Z,9.316711
2023-05-24T20:57:38.035Z,9.346924
2023-05-24T21:01:03.342Z,9.326782
2023-05-24T21:04:28.516Z,9.226074
2023-05-24T21:07:53.794Z,9.17572
2023-05-24T21:11:19.353Z,9.095154
2023-05-24T21:14:44.533Z,9.075012
2023-05-24T21:18:09.814Z,8.984375
2023-05-24T21:21:35.030Z,8.944092
2023-05-24T21:25:00.236Z,8.944092
2023-05-24T21:28:25.484Z,8.863525
2023-05-24T21:31:50.672Z,8.813171
2023-05-24T21:35:15.924Z,8.813171
2023-05-24T21:38:41.145Z,8.803101
2023-05-24T21:42:06.391Z,8.732605
2023-05-24T21:45:31.669Z,8.652039
2023-05-24T21:48:56.905Z,8.631897
2023-05-24T21:52:22.169Z,8.631897
2023-05-24T21:55:47.486Z,8.652039
2023-05-24T21:59:12.719Z,8.531189
2023-05-24T22:02:38.186Z,8.531189
2023-05-24T22:06:03.332Z,8.531189
2023-05-24T22:09:28.531Z,8.521118
2023-05-24T22:12:55.903Z,8.531189
2023-05-24T22:16:21.237Z,8.480835
2023-05-24T22:19:46.538Z,8.430481
2023-05-24T22:23:11.721Z,8.339844
2023-05-24T22:26:36.978Z,8.430481
2023-05-24T22:30:02.227Z,8.410339
2023-05-24T22:33:27.443Z,8.450623
2023-05-24T22:36:52.682Z,8.470764
2023-05-24T22:40:17.849Z,8.410339
2023-05-24T22:43:43.166Z,8.229065
2023-05-24T22:47:08.426Z,8.198853
2023-05-24T22:50:33.636Z,8.198853
2023-05-24T22:53:58.892Z,8.158569
2023-05-24T22:57:24.091Z,8.148499
2023-05-24T23:00:49.405Z,8.118286
2023-05-24T23:04:20.911Z,8.067932
2023-05-24T23:07:40.030Z,7.997437
2023-05-24T23:11:05.158Z,7.947083
2023-05-24T23:14:30.418Z,7.967224
2023-05-24T23:17:55.653Z,8.007507
2023-05-24T23:21:20.946Z,7.896729
2023-05-24T23:24:46.264Z,7.977295
2023-05-24T23:28:11.509Z,7.977295
2023-05-24T23:31:36.809Z,7.926941
2023-05-24T23:35:01.960Z,7.91687
2023-05-24T23:38:27.232Z,7.896729
2023-05-24T23:41:52.477Z,7.866516
2023-05-24T23:45:17.753Z,7.856445
2023-05-24T23:48:42.976Z,7.816162
2023-05-24T23:52:08.292Z,7.796021
2023-05-24T23:55:33.492Z,7.78595
2023-05-24T23:58:58.718Z,7.78595
